Main page
METAR-TAF:

METAR-TAF

Airports :

Oil platform

J6-a, Netherlands

latitude: 53-49-27N, longitude: 2-56-43E, elevation: 34 m

Current weather observation

The report was made 37 minutes ago, at 22:25 UTC
Wind 18 kt from the East/Southeast, varying between East/Northeast and South/Southeast
Temperature 7°C
Humidity 87%
Pressure 1003 hPa
Visibility: 9000 m

METAR: EHJA 212225Z AUTO 12018KT 060V160 9000 FEW009/// OVC010/// 07/05 Q1003 W///H///

Time: 00:02 (23:02 UTC)


TAF: missing

Weather observations and forecasts of more than 4000 airports (METAR and TAF reports).

The available stations are represented by yellow and red dots on the map.

Hover mouse over dot to see the name of the station.

Then click to see weather observations and forecasts.

To change the map : click on the green buttons with a black cross to zoom in, on the green button with a dash to zoom out, or on the green arrows for adjacent maps.


METAR-TAF: